Time;durP1;ratioP1;P1;durP2;ratioP2;P2;SDS_P1;SDS_P2;PMS_P1;PMS_P2;Temp;Humidity;BMP_temperature;BMP_pressure;BME280_temperature;BME280_humidity;BME280_pressure;Samples;Min_cycle;Max_cycle;Signal;HPM_P1;HPM_P2
2023/08/01 00:01:03;;;;;;;;;;;23.00;90.30;;;;;;5075231;28;19951;-66
2023/08/01 00:03:28;;;;;;;;;;;23.00;90.30;;;;;;5075436;28;20255;-66
2023/08/01 00:05:55;;;;;;;;;;;23.00;90.30;;;;;;5075121;28;19915;-66
2023/08/01 00:08:20;;;;;;;;;;;23.00;90.30;;;;;;5074681;28;20405;-66
2023/08/01 00:10:46;;;;;;;;;;;23.00;90.30;;;;;;5074904;28;19912;-66
2023/08/01 00:13:12;;;;;;;;;;;23.00;90.30;;;;;;5074977;28;19912;-66
2023/08/01 00:15:37;;;;;;;;;;;23.00;90.30;;;;;;5074611;28;20263;-66
2023/08/01 00:18:03;;;;;;;;;;;23.00;90.30;;;;;;5074929;28;20014;-66
2023/08/01 00:20:28;;;;;;;;;;;23.00;90.30;;;;;;5074918;28;19947;-66
2023/08/01 00:22:54;;;;;;;;;;;23.00;90.30;;;;;;5074635;28;20298;-66
2023/08/01 00:25:19;;;;;;;;;;;23.00;90.30;;;;;;5074810;28;20305;-66
2023/08/01 00:27:45;;;;;;;;;;;23.00;90.30;;;;;;5074920;28;19955;-66
2023/08/01 00:30:10;;;;;;;;;;;23.00;90.30;;;;;;5075016;28;19913;-66
2023/08/01 00:32:36;;;;;;;;;;;23.00;90.30;;;;;;5074670;28;20354;-67
2023/08/01 00:35:03;;;;;;;;;;;23.00;90.30;;;;;;5074596;28;20232;-67
2023/08/01 00:37:28;;;;;;;;;;;23.00;90.30;;;;;;5074326;28;19995;-65
2023/08/01 00:39:53;;;;;;;;;;;23.00;90.30;;;;;;5074227;28;19955;-67
2023/08/01 00:42:19;;;;;;;;;;;23.00;90.30;;;;;;5074191;28;19904;-66
2023/08/01 00:44:46;;;;;;;;;;;22.90;90.30;;;;;;5074024;28;19927;-67
2023/08/01 00:47:12;;;;;;;;;;;23.00;90.30;;;;;;5074539;28;19916;-67
2023/08/01 00:49:37;;;;;;;;;;;23.00;90.30;;;;;;5074364;28;19912;-67
2023/08/01 00:52:03;;;;;;;;;;;23.00;90.30;;;;;;5073094;28;19970;-67
2023/08/01 00:54:35;;;;;;;;;;;23.00;90.30;;;;;;5074106;28;19950;-66
2023/08/01 00:57:00;;;;;;;;;;;23.00;90.30;;;;;;5074392;28;19905;-68
2023/08/01 00:59:26;;;;;;;;;;;23.00;90.30;;;;;;5073942;28;19905;-67
2023/08/01 01:01:51;;;;;;;;;;;22.90;90.30;;;;;;5073957;28;19911;-67
2023/08/01 01:04:17;;;;;;;;;;;23.00;90.30;;;;;;5074125;28;20409;-68
2023/08/01 01:06:47;;;;;;;;;;;23.00;90.30;;;;;;5073901;28;19934;-67
2023/08/01 01:09:19;;;;;;;;;;;23.00;90.30;;;;;;5073813;28;19908;-66
2023/08/01 01:11:46;;;;;;;;;;;23.00;90.30;;;;;;5074061;28;19912;-67
2023/08/01 01:14:11;;;;;;;;;;;23.00;90.30;;;;;;5073792;28;20266;-68
2023/08/01 01:16:37;;;;;;;;;;;23.00;90.30;;;;;;5073770;28;20004;-67
2023/08/01 01:19:06;;;;;;;;;;;23.00;90.30;;;;;;5073715;28;20355;-67
2023/08/01 01:21:33;;;;;;;;;;;22.90;90.30;;;;;;5073728;28;19927;-67
2023/08/01 01:23:59;;;;;;;;;;;23.00;90.30;;;;;;5074023;28;19973;-66
2023/08/01 01:26:25;;;;;;;;;;;23.00;90.30;;;;;;5074036;28;19909;-66
2023/08/01 01:28:50;;;;;;;;;;;23.00;90.30;;;;;;5077410;28;20373;-67
2023/08/01 01:31:16;;;;;;;;;;;22.90;90.20;;;;;;5077835;28;19916;-65
2023/08/01 01:33:42;;;;;;;;;;;22.90;90.20;;;;;;5077782;28;19916;-66
2023/08/01 01:36:08;;;;;;;;;;;23.00;90.20;;;;;;5078014;28;19908;-65
2023/08/01 01:38:33;;;;;;;;;;;23.00;90.30;;;;;;5077697;28;19927;-66
2023/08/01 01:40:58;;;;;;;;;;;23.00;90.30;;;;;;5077715;28;19904;-66
2023/08/01 01:43:24;;;;;;;;;;;22.90;90.20;;;;;;5077961;28;20357;-66
2023/08/01 01:45:49;;;;;;;;;;;23.00;90.30;;;;;;5077963;28;19951;-66
2023/08/01 01:48:15;;;;;;;;;;;23.00;90.20;;;;;;5077678;28;19909;-65
2023/08/01 01:50:40;;;;;;;;;;;23.00;90.20;;;;;;5077837;28;19954;-65
2023/08/01 01:53:06;;;;;;;;;;;23.00;90.20;;;;;;5077466;28;20304;-65
2023/08/01 01:55:31;;;;;;;;;;;23.00;90.20;;;;;;5078065;28;19912;-65
2023/08/01 01:57:57;;;;;;;;;;;22.90;90.20;;;;;;5077712;28;19909;-64
2023/08/01 02:00:22;;;;;;;;;;;23.00;90.20;;;;;;5076352;28;20339;-65
2023/08/01 02:02:48;;;;;;;;;;;23.00;90.20;;;;;;5077588;28;19904;-66
2023/08/01 02:05:13;;;;;;;;;;;23.00;90.20;;;;;;5077526;28;19958;-65
2023/08/01 02:07:39;;;;;;;;;;;23.00;90.20;;;;;;5077334;28;19962;-66
2023/08/01 02:10:04;;;;;;;;;;;23.00;90.20;;;;;;5077454;28;19912;-65
2023/08/01 02:12:31;;;;;;;;;;;23.00;90.20;;;;;;5077117;28;19971;-66
2023/08/01 02:14:57;;;;;;;;;;;23.00;90.40;;;;;;5077108;28;19973;-65
2023/08/01 02:17:22;;;;;;;;;;;22.90;90.10;;;;;;5077018;28;20343;-66
2023/08/01 02:19:48;;;;;;;;;;;22.90;90.10;;;;;;5077232;28;19904;-65
2023/08/01 02:22:13;;;;;;;;;;;23.00;90.10;;;;;;5076913;28;19904;-65
2023/08/01 02:24:39;;;;;;;;;;;23.00;90.10;;;;;;5077145;28;19904;-66
2023/08/01 02:27:04;;;;;;;;;;;22.90;90.10;;;;;;5076818;28;20046;-65
2023/08/01 02:29:30;;;;;;;;;;;23.00;90.10;;;;;;5075763;28;19913;-66
2023/08/01 02:31:56;;;;;;;;;;;22.90;90.10;;;;;;5076626;28;19912;-65
2023/08/01 02:34:21;;;;;;;;;;;23.00;90.10;;;;;;5077297;28;19904;-65
2023/08/01 02:36:47;;;;;;;;;;;23.00;90.10;;;;;;5077269;28;20343;-65
2023/08/01 02:39:12;;;;;;;;;;;22.90;90.10;;;;;;5076850;28;20232;-66
2023/08/01 02:41:37;;;;;;;;;;;22.90;90.10;;;;;;5076820;28;20023;-66
2023/08/01 02:44:03;;;;;;;;;;;23.00;90.10;;;;;;5076587;28;19950;-65
2023/08/01 02:46:29;;;;;;;;;;;23.00;90.10;;;;;;5076876;28;19905;-64
2023/08/01 02:48:55;;;;;;;;;;;22.90;90.10;;;;;;5075379;28;19957;-66
2023/08/01 02:51:20;;;;;;;;;;;23.00;90.10;;;;;;5076686;28;20305;-65
2023/08/01 02:53:46;;;;;;;;;;;22.90;90.10;;;;;;5076360;28;20416;-65
2023/08/01 02:56:11;;;;;;;;;;;22.90;90.10;;;;;;5076297;28;19905;-65
2023/08/01 02:58:37;;;;;;;;;;;22.90;90.10;;;;;;5076325;28;19908;-65
2023/08/01 03:01:07;;;;;;;;;;;23.00;90.10;;;;;;5076462;28;19911;-65
2023/08/01 03:03:32;;;;;;;;;;;22.90;90.10;;;;;;5076229;28;19904;-65
2023/08/01 03:05:58;;;;;;;;;;;22.90;90.10;;;;;;5076681;28;19912;-66
2023/08/01 03:08:24;;;;;;;;;;;23.00;90.20;;;;;;5076418;28;19908;-65
2023/08/01 03:10:50;;;;;;;;;;;22.90;90.10;;;;;;5076228;28;19915;-65
2023/08/01 03:13:15;;;;;;;;;;;22.90;90.10;;;;;;5075918;28;19904;-65
2023/08/01 03:15:41;;;;;;;;;;;23.00;90.20;;;;;;5076170;28;19909;-66
2023/08/01 03:18:06;;;;;;;;;;;22.90;90.10;;;;;;5076144;28;19908;-65
2023/08/01 03:20:32;;;;;;;;;;;22.90;90.10;;;;;;5076134;28;19911;-66
2023/08/01 03:22:57;;;;;;;;;;;22.90;90.10;;;;;;5076117;28;19904;-66
2023/08/01 03:25:23;;;;;;;;;;;22.90;90.10;;;;;;5075790;28;19910;-65
2023/08/01 03:27:48;;;;;;;;;;;22.90;90.10;;;;;;5075346;28;20014;-66
2023/08/01 03:30:14;;;;;;;;;;;22.90;90.10;;;;;;5075641;28;20085;-66
2023/08/01 03:32:40;;;;;;;;;;;22.90;90.10;;;;;;5075778;28;19905;-65
2023/08/01 03:35:05;;;;;;;;;;;22.90;90.10;;;;;;5075763;28;19912;-65
2023/08/01 03:37:31;;;;;;;;;;;22.90;90.10;;;;;;5075972;28;19911;-65
2023/08/01 03:39:56;;;;;;;;;;;22.90;90.10;;;;;;5075750;28;20367;-66
2023/08/01 03:42:22;;;;;;;;;;;22.90;90.10;;;;;;5075655;28;20042;-66
2023/08/01 03:44:48;;;;;;;;;;;22.90;90.10;;;;;;5075524;28;19923;-65
2023/08/01 03:47:13;;;;;;;;;;;22.90;90.40;;;;;;5074198;28;19905;-65
2023/08/01 03:49:39;;;;;;;;;;;22.90;90.10;;;;;;5075124;28;19956;-66
2023/08/01 03:52:05;;;;;;;;;;;22.90;90.10;;;;;;5075555;28;19961;-65
2023/08/01 03:54:30;;;;;;;;;;;22.90;90.10;;;;;;5074983;28;19905;-64
2023/08/01 03:56:56;;;;;;;;;;;22.90;90.10;;;;;;5075032;28;19904;-66
2023/08/01 03:59:22;;;;;;;;;;;22.90;90.10;;;;;;5075303;28;19904;-65
2023/08/01 04:01:47;;;;;;;;;;;22.90;90.10;;;;;;5075271;28;19999;-65
2023/08/01 04:04:13;;;;;;;;;;;22.90;90.10;;;;;;5074779;28;19904;-65
2023/08/01 04:06:38;;;;;;;;;;;22.90;90.10;;;;;;5075171;28;19912;-65
2023/08/01 04:09:04;;;;;;;;;;;22.90;90.10;;;;;;5074927;28;19908;-65
2023/08/01 04:11:29;;;;;;;;;;;22.90;90.10;;;;;;5075329;28;19938;-64
2023/08/01 04:13:55;;;;;;;;;;;22.90;90.10;;;;;;5075003;28;19913;-65
2023/08/01 04:16:21;;;;;;;;;;;22.90;90.20;;;;;;5074864;28;20241;-66
2023/08/01 04:18:46;;;;;;;;;;;22.90;90.10;;;;;;5074813;28;19911;-66
2023/08/01 04:21:13;;;;;;;;;;;22.90;90.10;;;;;;5074616;28;19927;-66
2023/08/01 04:23:39;;;;;;;;;;;22.90;90.10;;;;;;5074492;28;19954;-65
2023/08/01 04:26:06;;;;;;;;;;;22.90;90.10;;;;;;5073113;28;19909;-65
2023/08/01 04:28:32;;;;;;;;;;;22.90;90.10;;;;;;5074585;28;19908;-64
2023/08/01 04:30:57;;;;;;;;;;;22.90;90.10;;;;;;5074454;28;20359;-66
2023/08/01 04:33:23;;;;;;;;;;;22.90;90.10;;;;;;5074244;28;19912;-66
2023/08/01 04:35:49;;;;;;;;;;;22.90;90.40;;;;;;5074504;28;20259;-65
2023/08/01 04:38:14;;;;;;;;;;;22.90;90.10;;;;;;5074545;28;19957;-66
2023/08/01 04:40:40;;;;;;;;;;;22.90;90.10;;;;;;5074138;28;19995;-65
2023/08/01 04:43:05;;;;;;;;;;;22.90;90.10;;;;;;5074108;28;19904;-66
2023/08/01 04:45:31;;;;;;;;;;;22.90;90.10;;;;;;5074208;28;19999;-65
2023/08/01 04:47:56;;;;;;;;;;;22.90;90.10;;;;;;5074338;28;19909;-66
2023/08/01 04:50:22;;;;;;;;;;;22.90;90.20;;;;;;5074408;28;20264;-66
2023/08/01 04:52:47;;;;;;;;;;;22.90;90.10;;;;;;5074005;28;20343;-66
2023/08/01 04:55:13;;;;;;;;;;;22.90;90.10;;;;;;5074224;28;19951;-65
2023/08/01 04:57:39;;;;;;;;;;;22.90;90.10;;;;;;5074218;28;19904;-66
2023/08/01 05:00:05;;;;;;;;;;;22.90;90.20;;;;;;5074282;28;19915;-66
2023/08/01 05:02:31;;;;;;;;;;;22.90;90.20;;;;;;5070887;28;19912;-65
2023/08/01 05:04:56;;;;;;;;;;;22.90;90.10;;;;;;5075201;28;19954;-65
2023/08/01 05:07:22;;;;;;;;;;;22.90;90.20;;;;;;5073835;28;19905;-66
2023/08/01 05:09:47;;;;;;;;;;;22.90;90.20;;;;;;5073648;28;19909;-66
2023/08/01 05:12:12;;;;;;;;;;;22.90;90.10;;;;;;5081193;28;19995;-66
2023/08/01 05:14:38;;;;;;;;;;;22.90;90.10;;;;;;5094192;28;19957;-66
2023/08/01 05:17:04;;;;;;;;;;;22.90;90.20;;;;;;5094513;28;20296;-66
2023/08/01 05:19:29;;;;;;;;;;;22.90;90.20;;;;;;5088041;28;19916;-64
2023/08/01 05:21:55;;;;;;;;;;;22.90;90.20;;;;;;5081523;28;19918;-68
2023/08/01 05:24:20;;;;;;;;;;;22.90;90.20;;;;;;5087760;28;19915;-66
2023/08/01 05:26:46;;;;;;;;;;;22.80;90.20;;;;;;5076078;28;19913;-66
2023/08/01 05:29:11;;;;;;;;;;;22.80;90.10;;;;;;5072531;28;19925;-65
2023/08/01 05:31:37;;;;;;;;;;;22.80;90.00;;;;;;5074981;28;20307;-66
2023/08/01 05:34:02;;;;;;;;;;;22.80;89.30;;;;;;5083807;28;19912;-67
2023/08/01 05:36:28;;;;;;;;;;;22.80;88.80;;;;;;5075314;28;20362;-68
2023/08/01 05:38:53;;;;;;;;;;;22.80;88.50;;;;;;5084201;28;20015;-63
2023/08/01 05:41:19;;;;;;;;;;;22.80;88.70;;;;;;5089045;28;19912;-64
2023/08/01 05:43:46;;;;;;;;;;;22.80;89.00;;;;;;5092853;28;19923;-66
2023/08/01 05:46:12;;;;;;;;;;;22.80;89.10;;;;;;5093332;28;19966;-66
2023/08/01 05:48:37;;;;;;;;;;;22.80;89.30;;;;;;5093381;28;19912;-66
2023/08/01 05:51:03;;;;;;;;;;;22.80;89.40;;;;;;5094114;28;19982;-66
2023/08/01 05:53:28;;;;;;;;;;;22.80;89.50;;;;;;5093675;28;20320;-66
2023/08/01 05:55:54;;;;;;;;;;;22.80;89.60;;;;;;5093553;28;20004;-66
2023/08/01 05:58:19;;;;;;;;;;;22.80;89.70;;;;;;5092272;28;19908;-66
2023/08/01 06:00:45;;;;;;;;;;;22.80;89.80;;;;;;5092935;28;20292;-66
2023/08/01 06:03:10;;;;;;;;;;;22.80;89.80;;;;;;5093245;28;19915;-66
2023/08/01 06:05:37;;;;;;;;;;;22.80;89.90;;;;;;5093570;28;19908;-66
2023/08/01 06:08:03;;;;;;;;;;;22.80;89.90;;;;;;5093723;28;19919;-66
2023/08/01 06:10:29;;;;;;;;;;;22.80;89.90;;;;;;5093537;28;19912;-66
2023/08/01 06:12:54;;;;;;;;;;;22.80;89.90;;;;;;5093414;28;19924;-66
2023/08/01 06:15:21;;;;;;;;;;;22.80;89.90;;;;;;5097360;28;20369;-66
2023/08/01 06:17:46;;;;;;;;;;;22.80;89.90;;;;;;5095724;28;19951;-66
2023/08/01 06:20:12;;;;;;;;;;;22.80;90.00;;;;;;5097443;28;19912;-66
2023/08/01 06:22:38;;;;;;;;;;;22.80;90.00;;;;;;5097065;28;20308;-66
2023/08/01 06:25:03;;;;;;;;;;;22.80;90.00;;;;;;5097176;28;19908;-65
2023/08/01 06:27:29;;;;;;;;;;;22.80;90.00;;;;;;5096940;28;19908;-67
2023/08/01 06:29:54;;;;;;;;;;;22.80;89.90;;;;;;5096581;28;19916;-67
2023/08/01 06:32:20;;;;;;;;;;;22.80;89.90;;;;;;5098784;28;19959;-67
2023/08/01 06:34:45;;;;;;;;;;;22.80;89.90;;;;;;5096799;28;19923;-67
2023/08/01 06:37:11;;;;;;;;;;;22.80;89.90;;;;;;5096560;28;20021;-67
2023/08/01 06:39:36;;;;;;;;;;;22.80;89.90;;;;;;5096610;28;19915;-66
2023/08/01 06:42:02;;;;;;;;;;;22.80;89.90;;;;;;5096448;28;20000;-67
2023/08/01 06:44:28;;;;;;;;;;;22.80;89.80;;;;;;5096328;28;20011;-67
2023/08/01 06:46:53;;;;;;;;;;;22.80;89.80;;;;;;5096479;28;19962;-67
2023/08/01 06:49:19;;;;;;;;;;;22.80;89.90;;;;;;5096403;28;20003;-68
2023/08/01 06:51:44;;;;;;;;;;;22.80;89.80;;;;;;5096385;28;19944;-68
2023/08/01 06:54:10;;;;;;;;;;;22.80;89.80;;;;;;5095163;28;19908;-68
2023/08/01 06:56:35;;;;;;;;;;;22.80;89.80;;;;;;5096194;28;19908;-67
2023/08/01 06:59:01;;;;;;;;;;;22.80;89.80;;;;;;5096049;28;20440;-67
2023/08/01 07:01:26;;;;;;;;;;;22.80;89.80;;;;;;5095891;28;19916;-67
2023/08/01 07:03:52;;;;;;;;;;;22.80;89.80;;;;;;5096085;28;19916;-67
2023/08/01 07:06:17;;;;;;;;;;;22.80;89.80;;;;;;5096102;28;19956;-67
2023/08/01 07:08:43;;;;;;;;;;;22.80;89.80;;;;;;5095978;28;19912;-67
2023/08/01 07:11:09;;;;;;;;;;;22.80;89.80;;;;;;5096595;28;19912;-66
2023/08/01 07:13:34;;;;;;;;;;;22.80;89.80;;;;;;5095863;28;19920;-67
2023/08/01 07:16:00;;;;;;;;;;;22.80;89.80;;;;;;5095897;28;19908;-66
2023/08/01 07:18:25;;;;;;;;;;;22.80;89.70;;;;;;5094790;28;19908;-67
2023/08/01 07:21:01;;;;;;;;;;;22.80;89.70;;;;;;5094482;28;19928;-67
2023/08/01 07:23:26;;;;;;;;;;;22.80;89.70;;;;;;5096076;28;20424;-67
2023/08/01 07:25:52;;;;;;;;;;;22.80;89.80;;;;;;5094911;28;20405;-67
2023/08/01 07:28:17;;;;;;;;;;;22.80;89.70;;;;;;5095529;28;19965;-67
2023/08/01 07:30:43;;;;;;;;;;;22.80;89.70;;;;;;5094601;28;19994;-67
2023/08/01 07:33:08;;;;;;;;;;;22.70;89.70;;;;;;5095925;28;20351;-66
2023/08/01 07:35:33;;;;;;;;;;;22.70;89.70;;;;;;5095902;28;19908;-67
2023/08/01 07:37:59;;;;;;;;;;;22.70;89.60;;;;;;5095849;28;19908;-67
2023/08/01 07:40:24;;;;;;;;;;;22.80;89.70;;;;;;5095661;28;19912;-66
2023/08/01 07:42:50;;;;;;;;;;;22.80;89.60;;;;;;5095682;28;20346;-67
2023/08/01 07:45:16;;;;;;;;;;;22.70;89.60;;;;;;5095407;28;19920;-67
2023/08/01 07:47:41;;;;;;;;;;;22.70;89.50;;;;;;5095538;28;19923;-67
2023/08/01 07:50:07;;;;;;;;;;;22.80;89.60;;;;;;5095462;28;19919;-66
2023/08/01 07:52:32;;;;;;;;;;;22.70;89.50;;;;;;5095523;28;20384;-67
2023/08/01 07:54:58;;;;;;;;;;;22.70;89.50;;;;;;5095105;28;19908;-67
2023/08/01 07:57:23;;;;;;;;;;;22.80;89.50;;;;;;5093987;28;19959;-66
2023/08/01 07:59:49;;;;;;;;;;;22.70;89.50;;;;;;5094971;28;19951;-67
2023/08/01 08:02:14;;;;;;;;;;;22.70;89.50;;;;;;5095274;28;20367;-66
2023/08/01 08:04:40;;;;;;;;;;;22.70;89.40;;;;;;5093777;28;19995;-66
2023/08/01 08:07:05;;;;;;;;;;;22.70;89.40;;;;;;5094945;28;19988;-66
2023/08/01 08:09:31;;;;;;;;;;;22.70;89.40;;;;;;5093770;28;19919;-66
2023/08/01 08:11:57;;;;;;;;;;;22.70;89.40;;;;;;5094853;28;19935;-66
2023/08/01 08:14:23;;;;;;;;;;;22.80;89.40;;;;;;5093687;28;19912;-66
2023/08/01 08:16:49;;;;;;;;;;;22.70;89.40;;;;;;5094811;28;20274;-65
2023/08/01 08:19:15;;;;;;;;;;;22.80;89.50;;;;;;5094584;28;19935;-65
2023/08/01 08:21:40;;;;;;;;;;;22.70;89.40;;;;;;5094840;28;20359;-65
2023/08/01 08:24:06;;;;;;;;;;;22.70;89.40;;;;;;5094785;28;19915;-64
2023/08/01 08:26:33;;;;;;;;;;;22.80;90.00;;;;;;5094652;28;19908;-67
2023/08/01 08:28:59;;;;;;;;;;;22.80;89.40;;;;;;5094690;28;19919;-65
2023/08/01 08:31:25;;;;;;;;;;;22.80;89.40;;;;;;5094382;28;19931;-66
2023/08/01 08:33:50;;;;;;;;;;;22.80;89.40;;;;;;5094765;28;19909;-65
2023/08/01 08:36:15;;;;;;;;;;;22.80;89.40;;;;;;5094450;28;20015;-66
2023/08/01 08:38:41;;;;;;;;;;;22.80;89.40;;;;;;5094329;28;19908;-65
2023/08/01 08:41:07;;;;;;;;;;;22.70;89.30;;;;;;5094261;28;19954;-65
2023/08/01 08:43:33;;;;;;;;;;;22.80;89.40;;;;;;5094139;28;19914;-65
2023/08/01 08:46:00;;;;;;;;;;;22.80;89.40;;;;;;5094521;28;19920;-66
2023/08/01 08:48:25;;;;;;;;;;;22.70;89.30;;;;;;5094114;28;19916;-65
2023/08/01 08:50:51;;;;;;;;;;;22.70;89.30;;;;;;5094760;28;20003;-65
2023/08/01 08:53:17;;;;;;;;;;;22.70;89.30;;;;;;5094408;28;20342;-64
2023/08/01 08:55:43;;;;;;;;;;;22.70;89.30;;;;;;5093708;28;19908;-65
2023/08/01 08:58:08;;;;;;;;;;;22.70;89.30;;;;;;5093890;28;20373;-65
2023/08/01 09:00:35;;;;;;;;;;;22.70;89.30;;;;;;5094087;28;19969;-65
2023/08/01 09:03:01;;;;;;;;;;;22.80;89.30;;;;;;5093961;28;19931;-65
2023/08/01 09:05:27;;;;;;;;;;;22.70;89.30;;;;;;5094373;28;19912;-65
2023/08/01 09:07:55;;;;;;;;;;;22.70;89.30;;;;;;5093973;28;19912;-66
2023/08/01 09:10:20;;;;;;;;;;;22.70;89.30;;;;;;5093753;28;19912;-66
2023/08/01 09:12:46;;;;;;;;;;;22.70;89.30;;;;;;5093527;28;19914;-64
2023/08/01 09:15:12;;;;;;;;;;;22.70;89.30;;;;;;5094432;28;19908;-65
2023/08/01 09:17:47;;;;;;;;;;;22.70;89.20;;;;;;5093330;28;20335;-64
2023/08/01 09:20:12;;;;;;;;;;;22.70;89.20;;;;;;5093543;28;20362;-64
2023/08/01 09:22:42;;;;;;;;;;;22.80;89.30;;;;;;5093566;28;19908;-66
2023/08/01 09:25:07;;;;;;;;;;;22.70;89.20;;;;;;5093720;28;20305;-63
2023/08/01 09:27:33;;;;;;;;;;;22.70;89.20;;;;;;5093703;28;19912;-64
2023/08/01 09:30:09;;;;;;;;;;;22.70;89.20;;;;;;5093874;28;20287;-63
2023/08/01 09:32:35;;;;;;;;;;;22.70;89.20;;;;;;5094325;28;20316;-65
2023/08/01 09:35:00;;;;;;;;;;;22.70;89.20;;;;;;5093976;28;19908;-66
2023/08/01 09:37:25;;;;;;;;;;;22.70;89.20;;;;;;5094072;28;20331;-66
2023/08/01 09:39:55;;;;;;;;;;;22.80;89.20;;;;;;5093454;28;19915;-65
2023/08/01 09:42:21;;;;;;;;;;;22.70;89.20;;;;;;5093590;28;19908;-65
2023/08/01 09:44:49;;;;;;;;;;;22.70;89.20;;;;;;5093243;28;19999;-65
2023/08/01 09:47:17;;;;;;;;;;;22.70;89.20;;;;;;5093920;28;20123;-65
2023/08/01 09:49:53;;;;;;;;;;;22.70;89.10;;;;;;5096841;28;19912;-66
2023/08/01 09:52:26;;;;;;;;;;;22.70;89.10;;;;;;5097236;28;20285;-66
2023/08/01 09:54:52;;;;;;;;;;;22.70;89.70;;;;;;5097557;28;19915;-66
2023/08/01 09:57:18;;;;;;;;;;;22.70;89.10;;;;;;5097092;28;19912;-66
2023/08/01 09:59:43;;;;;;;;;;;22.70;89.10;;;;;;5097551;28;19951;-66
2023/08/01 10:02:13;;;;;;;;;;;22.70;89.10;;;;;;5096388;28;19943;-66
2023/08/01 10:04:40;;;;;;;;;;;22.70;89.10;;;;;;5097566;28;19908;-65
2023/08/01 10:07:11;;;;;;;;;;;22.70;89.00;;;;;;5097370;28;19912;-66
2023/08/01 10:09:37;;;;;;;;;;;22.70;89.10;;;;;;5097123;28;20003;-66
2023/08/01 10:12:04;;;;;;;;;;;22.70;89.00;;;;;;5097190;28;19939;-66
2023/08/01 10:14:30;;;;;;;;;;;22.70;89.00;;;;;;5097145;28;19908;-65
2023/08/01 10:16:56;;;;;;;;;;;22.70;89.00;;;;;;5096778;28;19956;-66
2023/08/01 10:19:21;;;;;;;;;;;22.70;89.00;;;;;;5097069;28;19915;-66
2023/08/01 10:21:48;;;;;;;;;;;22.70;89.00;;;;;;5096866;28;20259;-66
2023/08/01 10:24:14;;;;;;;;;;;22.70;89.50;;;;;;5097081;28;20244;-66
2023/08/01 10:26:40;;;;;;;;;;;22.70;89.00;;;;;;5096855;28;19908;-65
2023/08/01 10:29:05;;;;;;;;;;;22.70;88.90;;;;;;5096716;28;19981;-66
2023/08/01 10:31:31;;;;;;;;;;;22.70;88.90;;;;;;5096689;28;20011;-66
2023/08/01 10:34:06;;;;;;;;;;;22.70;88.90;;;;;;5096642;28;19908;-66
2023/08/01 10:36:32;;;;;;;;;;;22.70;88.90;;;;;;5096880;28;20278;-66
2023/08/01 10:39:00;;;;;;;;;;;22.70;88.90;;;;;;5095738;28;20293;-66
2023/08/01 10:41:27;;;;;;;;;;;22.70;88.90;;;;;;5096904;28;19908;-66
2023/08/01 10:44:08;;;;;;;;;;;22.70;88.80;;;;;;5096533;28;20309;-66
2023/08/01 10:46:47;;;;;;;;;;;22.70;88.80;;;;;;5094887;28;20305;-66
2023/08/01 10:49:13;;;;;;;;;;;22.70;88.80;;;;;;5095985;28;19912;-66
2023/08/01 10:51:38;;;;;;;;;;;22.70;88.70;;;;;;5096215;28;19966;-64
2023/08/01 10:54:04;;;;;;;;;;;22.70;88.70;;;;;;5096078;28;19908;-66
2023/08/01 10:56:31;;;;;;;;;;;22.70;88.70;;;;;;5096419;28;19908;-66
2023/08/01 10:58:57;;;;;;;;;;;22.70;88.70;;;;;;5096507;28;20018;-66
2023/08/01 11:01:22;;;;;;;;;;;22.70;88.70;;;;;;5094874;28;19956;-66
2023/08/01 11:03:48;;;;;;;;;;;22.70;88.70;;;;;;5095009;28;20274;-65
2023/08/01 11:06:14;;;;;;;;;;;22.70;88.70;;;;;;5095978;28;19951;-66
2023/08/01 11:08:40;;;;;;;;;;;22.70;88.70;;;;;;5096428;28;19916;-66
2023/08/01 11:11:06;;;;;;;;;;;22.70;88.60;;;;;;5096450;28;19915;-66
2023/08/01 11:13:34;;;;;;;;;;;22.70;88.60;;;;;;5096186;28;19969;-66
2023/08/01 11:16:04;;;;;;;;;;;22.70;88.50;;;;;;5094932;28;19919;-66
2023/08/01 11:18:30;;;;;;;;;;;22.70;88.50;;;;;;5096042;28;19912;-66
2023/08/01 11:20:56;;;;;;;;;;;22.70;88.50;;;;;;5095785;28;20420;-66
2023/08/01 11:23:27;;;;;;;;;;;22.70;88.50;;;;;;5095995;28;19958;-67
2023/08/01 11:25:54;;;;;;;;;;;22.70;88.50;;;;;;5096346;28;19912;-66
2023/08/01 11:28:20;;;;;;;;;;;22.70;88.50;;;;;;5095408;28;19966;-66
2023/08/01 11:30:46;;;;;;;;;;;22.70;88.40;;;;;;5094545;28;20366;-66
2023/08/01 11:33:15;;;;;;;;;;;22.70;88.50;;;;;;5095749;28;20007;-67
2023/08/01 11:35:40;;;;;;;;;;;22.70;88.70;;;;;;5095604;28;19914;-67
2023/08/01 11:38:06;;;;;;;;;;;22.70;88.50;;;;;;5095643;28;19995;-67
2023/08/01 11:40:32;;;;;;;;;;;22.70;88.50;;;;;;5094465;28;20317;-67
2023/08/01 11:42:58;;;;;;;;;;;22.70;88.50;;;;;;5095659;28;19954;-68
2023/08/01 11:45:23;;;;;;;;;;;22.70;88.50;;;;;;5095517;28;19927;-68
2023/08/01 11:47:49;;;;;;;;;;;22.70;89.00;;;;;;5095491;28;20373;-67
2023/08/01 11:50:20;;;;;;;;;;;22.70;88.50;;;;;;5095569;28;20011;-67
2023/08/01 11:52:47;;;;;;;;;;;22.70;88.50;;;;;;5095579;28;19908;-67
2023/08/01 11:55:18;;;;;;;;;;;22.70;88.50;;;;;;5095642;28;19908;-66
2023/08/01 11:57:51;;;;;;;;;;;22.70;88.50;;;;;;5095478;28;19908;-65
2023/08/01 12:00:20;;;;;;;;;;;22.70;88.40;;;;;;5095521;28;20066;-67
2023/08/01 12:02:46;;;;;;;;;;;22.70;88.50;;;;;;5094921;28;19908;-66
2023/08/01 12:05:11;;;;;;;;;;;22.70;88.40;;;;;;5095455;28;19990;-66
2023/08/01 12:07:37;;;;;;;;;;;22.70;88.50;;;;;;5094784;28;20289;-67
2023/08/01 12:10:02;;;;;;;;;;;22.70;88.50;;;;;;5093859;28;20256;-67
2023/08/01 12:12:28;;;;;;;;;;;22.60;88.40;;;;;;5094284;28;19908;-67
2023/08/01 12:14:55;;;;;;;;;;;22.60;88.40;;;;;;5094891;28;19908;-67
2023/08/01 12:17:21;;;;;;;;;;;22.70;88.40;;;;;;5094965;28;19915;-67
2023/08/01 12:19:46;;;;;;;;;;;22.70;88.40;;;;;;5094909;28;19909;-66
2023/08/01 12:22:12;;;;;;;;;;;22.70;88.40;;;;;;5094888;28;20431;-66
2023/08/01 12:24:37;;;;;;;;;;;22.60;88.30;;;;;;5095084;28;19908;-67
2023/08/01 12:27:07;;;;;;;;;;;22.70;88.40;;;;;;5094746;28;19908;-67
2023/08/01 12:29:32;;;;;;;;;;;22.70;88.40;;;;;;5094357;28;20262;-67
2023/08/01 12:31:58;;;;;;;;;;;22.60;88.30;;;;;;5093549;28;19912;-67
2023/08/01 12:34:23;;;;;;;;;;;22.60;88.30;;;;;;5094746;28;19908;-67
2023/08/01 12:36:49;;;;;;;;;;;22.60;88.30;;;;;;5094243;28;19914;-67
2023/08/01 12:39:14;;;;;;;;;;;22.60;88.30;;;;;;5094188;28;20358;-67
2023/08/01 12:41:40;;;;;;;;;;;22.70;88.30;;;;;;5094637;28;19977;-67
2023/08/01 12:44:05;;;;;;;;;;;22.70;88.30;;;;;;5094234;28;19951;-67
2023/08/01 12:46:31;;;;;;;;;;;22.70;88.40;;;;;;5094103;28;19963;-67
2023/08/01 12:48:56;;;;;;;;;;;22.60;88.30;;;;;;5094063;28;19919;-67
2023/08/01 12:51:23;;;;;;;;;;;22.70;88.30;;;;;;5093434;28;20201;-67
2023/08/01 12:53:49;;;;;;;;;;;22.60;88.30;;;;;;5094548;28;19955;-67
2023/08/01 12:56:14;;;;;;;;;;;22.60;88.30;;;;;;5094174;28;20398;-67
2023/08/01 12:58:40;;;;;;;;;;;22.60;88.30;;;;;;5094360;28;19915;-67
2023/08/01 13:01:05;;;;;;;;;;;22.60;88.30;;;;;;5094284;28;19912;-67
2023/08/01 13:03:31;;;;;;;;;;;22.60;88.30;;;;;;5092812;28;19908;-67
2023/08/01 13:05:58;;;;;;;;;;;22.60;88.30;;;;;;5094400;28;19912;-67
2023/08/01 13:08:23;;;;;;;;;;;22.60;88.30;;;;;;5093989;28;19912;-67
2023/08/01 13:10:49;;;;;;;;;;;22.60;88.20;;;;;;5094260;28;19919;-66
2023/08/01 13:13:15;;;;;;;;;;;22.60;88.30;;;;;;5094136;28;20395;-67
2023/08/01 13:15:41;;;;;;;;;;;22.60;88.30;;;;;;5093927;28;19916;-67
2023/08/01 13:18:06;;;;;;;;;;;22.60;88.30;;;;;;5092598;28;19908;-67
2023/08/01 13:20:32;;;;;;;;;;;22.60;88.30;;;;;;5093595;28;20009;-67
2023/08/01 13:22:57;;;;;;;;;;;22.60;88.30;;;;;;5091899;28;19908;-67
2023/08/01 13:25:23;;;;;;;;;;;22.60;88.30;;;;;;5094369;28;19908;-66
2023/08/01 13:27:48;;;;;;;;;;;22.60;88.30;;;;;;5093716;28;20001;-67
2023/08/01 13:30:14;;;;;;;;;;;22.60;88.30;;;;;;5093728;28;20359;-66
2023/08/01 13:32:40;;;;;;;;;;;22.60;88.30;;;;;;5093913;28;19963;-67
2023/08/01 13:35:05;;;;;;;;;;;22.60;88.30;;;;;;5093800;28;19912;-66
2023/08/01 13:37:31;;;;;;;;;;;22.60;88.30;;;;;;5093544;28;19915;-67
2023/08/01 13:39:57;;;;;;;;;;;22.60;88.30;;;;;;5093471;28;19977;-67
2023/08/01 13:42:22;;;;;;;;;;;22.60;88.40;;;;;;5093965;28;19916;-67
2023/08/01 13:44:48;;;;;;;;;;;22.60;88.30;;;;;;5093698;28;19920;-67
2023/08/01 13:47:13;;;;;;;;;;;22.60;88.30;;;;;;5093781;28;19971;-67
2023/08/01 13:49:39;;;;;;;;;;;22.60;88.30;;;;;;5093676;28;19919;-67
2023/08/01 13:52:05;;;;;;;;;;;22.60;88.30;;;;;;5093658;28;19920;-67
2023/08/01 13:54:30;;;;;;;;;;;22.60;88.30;;;;;;5093566;28;19908;-66
2023/08/01 13:56:56;;;;;;;;;;;22.60;88.30;;;;;;5093243;28;19908;-67
2023/08/01 13:59:21;;;;;;;;;;;22.60;88.40;;;;;;5093483;28;19915;-67
2023/08/01 14:01:47;;;;;;;;;;;22.60;88.30;;;;;;5093814;28;19955;-66
2023/08/01 14:04:15;;;;;;;;;;;22.60;88.30;;;;;;5093526;28;19908;-67
2023/08/01 14:06:41;;;;;;;;;;;22.60;88.30;;;;;;5093099;28;19952;-67
2023/08/01 14:09:08;;;;;;;;;;;22.60;88.30;;;;;;5093506;28;19912;-67